Time;durP1;ratioP1;P1;durP2;ratioP2;P2;SDS_P1;SDS_P2;PMS_P1;PMS_P2;Temp;Humidity;BMP_temperature;BMP_pressure;BME280_temperature;BME280_humidity;BME280_pressure;Samples;Min_cycle;Max_cycle;Signal;HPM_P1;HPM_P2
2023/06/26 00:00:44;;;;;;;;;;;22.80;63.50;;;;;;4969068;28;19922;-78
2023/06/26 00:03:14;;;;;;;;;;;22.90;62.60;;;;;;4972128;28;19943;-77
2023/06/26 00:05:41;;;;;;;;;;;22.90;63.60;;;;;;5038373;28;19962;-77
2023/06/26 00:08:06;;;;;;;;;;;22.80;63.80;;;;;;5032797;28;19918;-78
2023/06/26 00:10:32;;;;;;;;;;;22.90;62.30;;;;;;4971513;28;19972;-78
2023/06/26 00:12:57;;;;;;;;;;;23.00;61.40;;;;;;5038552;28;19920;-78
2023/06/26 00:15:24;;;;;;;;;;;23.00;61.20;;;;;;4965987;28;19914;-78
2023/06/26 00:17:50;;;;;;;;;;;23.10;62.20;;;;;;5057419;28;20249;-77
2023/06/26 00:20:16;;;;;;;;;;;23.10;60.20;;;;;;4970457;28;19930;-78
2023/06/26 00:22:41;;;;;;;;;;;23.30;61.70;;;;;;4973235;28;19914;-78
2023/06/26 00:25:07;;;;;;;;;;;23.30;60.20;;;;;;5024408;28;20396;-77
2023/06/26 00:27:32;;;;;;;;;;;23.40;59.70;;;;;;4953891;28;19918;-78
2023/06/26 00:29:58;;;;;;;;;;;23.30;61.10;;;;;;5024463;28;19973;-78
2023/06/26 00:32:23;;;;;;;;;;;23.40;60.90;;;;;;4972581;28;19945;-78
2023/06/26 00:34:49;;;;;;;;;;;23.40;61.10;;;;;;4971403;28;19914;-78
2023/06/26 00:37:14;;;;;;;;;;;23.40;61.30;;;;;;4965532;28;20033;-78
2023/06/26 00:39:40;;;;;;;;;;;23.50;60.10;;;;;;5021828;28;19910;-78
2023/06/26 00:42:06;;;;;;;;;;;23.40;60.70;;;;;;4971061;28;19941;-78
2023/06/26 00:44:31;;;;;;;;;;;23.40;59.00;;;;;;4968157;28;19919;-78
2023/06/26 00:46:57;;;;;;;;;;;23.40;61.00;;;;;;4969828;28;19914;-79
2023/06/26 00:49:23;;;;;;;;;;;23.40;60.00;;;;;;5043866;28;19918;-79
2023/06/26 00:51:49;;;;;;;;;;;23.20;60.40;;;;;;5038274;28;19910;-77
2023/06/26 00:54:19;;;;;;;;;;;23.30;60.90;;;;;;4973404;28;19917;-77
2023/06/26 00:56:45;;;;;;;;;;;23.20;59.90;;;;;;5031135;28;19918;-78
2023/06/26 00:59:11;;;;;;;;;;;23.30;59.70;;;;;;5039823;28;19949;-78
2023/06/26 01:01:36;;;;;;;;;;;23.20;59.40;;;;;;5038571;28;20365;-78
2023/06/26 01:04:02;;;;;;;;;;;23.10;60.90;;;;;;5054654;28;19980;-78
2023/06/26 01:06:31;;;;;;;;;;;23.10;61.30;;;;;;5032977;28;19922;-77
2023/06/26 01:08:57;;;;;;;;;;;23.20;60.00;;;;;;4968109;28;20281;-77
2023/06/26 01:11:23;;;;;;;;;;;23.10;60.50;;;;;;5036364;28;19926;-78
2023/06/26 01:13:50;;;;;;;;;;;23.10;60.80;;;;;;4972253;28;19910;-78
2023/06/26 01:16:19;;;;;;;;;;;23.00;62.10;;;;;;4970740;28;19914;-78
2023/06/26 01:18:45;;;;;;;;;;;23.00;60.70;;;;;;4971880;28;20005;-76
2023/06/26 01:21:13;;;;;;;;;;;23.00;60.60;;;;;;5025025;28;19918;-84
2023/06/26 01:23:47;;;;;;;;;;;23.00;60.50;;;;;;5085765;23;19928;-78
2023/06/26 01:26:16;;;;;;;;;;;23.00;60.30;;;;;;5071270;28;19915;-76
2023/06/26 01:28:42;;;;;;;;;;;23.10;59.70;;;;;;5073520;28;19915;-76
2023/06/26 01:31:08;;;;;;;;;;;23.20;61.10;;;;;;5071609;28;19916;-76
2023/06/26 01:33:34;;;;;;;;;;;23.10;61.00;;;;;;5098952;28;19912;-80
2023/06/26 01:36:00;;;;;;;;;;;23.20;60.30;;;;;;5079790;28;19951;-76
2023/06/26 01:38:28;;;;;;;;;;;23.10;60.80;;;;;;5072839;28;19971;-77
2023/06/26 01:40:54;;;;;;;;;;;23.10;60.10;;;;;;5075449;28;19954;-80
2023/06/26 01:43:31;;;;;;;;;;;23.10;59.90;;;;;;5081411;28;20302;-78
2023/06/26 01:46:04;;;;;;;;;;;23.10;60.50;;;;;;5079133;28;19912;-76
2023/06/26 01:48:36;;;;;;;;;;;23.10;59.20;;;;;;5073072;28;19912;-78
2023/06/26 01:51:03;;;;;;;;;;;23.00;60.20;;;;;;5076059;28;19912;-78
2023/06/26 01:53:32;;;;;;;;;;;23.00;59.10;;;;;;5097760;28;19923;-78
2023/06/26 01:56:05;;;;;;;;;;;23.00;59.30;;;;;;5087222;28;19912;-76
2023/06/26 01:58:31;;;;;;;;;;;23.20;60.20;;;;;;5068888;28;19912;-76
2023/06/26 02:00:57;;;;;;;;;;;23.10;62.00;;;;;;5094004;28;19958;-78
2023/06/26 02:03:24;;;;;;;;;;;23.00;60.30;;;;;;5101798;28;19908;-78
2023/06/26 02:05:50;;;;;;;;;;;23.00;60.80;;;;;;5077337;28;19961;-78
2023/06/26 02:08:15;;;;;;;;;;;23.00;60.80;;;;;;5083535;28;20143;-79
2023/06/26 02:10:41;;;;;;;;;;;23.00;60.80;;;;;;5084357;28;19915;-78
2023/06/26 02:13:06;;;;;;;;;;;22.90;61.00;;;;;;5092503;28;19912;-77
2023/06/26 02:15:31;;;;;;;;;;;23.00;61.10;;;;;;5106902;28;19961;-76
2023/06/26 02:17:57;;;;;;;;;;;22.90;60.00;;;;;;5072535;28;19920;-77
2023/06/26 02:20:22;;;;;;;;;;;23.10;59.30;;;;;;5090408;28;19919;-77
2023/06/26 02:22:48;;;;;;;;;;;23.00;58.60;;;;;;5090966;28;19920;-76
2023/06/26 02:25:14;;;;;;;;;;;23.00;58.80;;;;;;5090503;28;19919;-77
2023/06/26 02:27:39;;;;;;;;;;;23.00;58.60;;;;;;5089761;28;19912;-76
2023/06/26 02:30:05;;;;;;;;;;;23.20;56.60;;;;;;5080743;28;19959;-77
2023/06/26 02:32:30;;;;;;;;;;;23.10;57.70;;;;;;5089894;28;19955;-76
2023/06/26 02:34:56;;;;;;;;;;;23.00;57.90;;;;;;5090439;28;19956;-77
2023/06/26 02:37:21;;;;;;;;;;;23.20;57.80;;;;;;5096126;28;19912;-79
2023/06/26 02:39:47;;;;;;;;;;;23.30;57.40;;;;;;5074378;28;19909;-75
2023/06/26 02:42:12;;;;;;;;;;;23.30;57.50;;;;;;5095030;28;19957;-77
2023/06/26 02:44:38;;;;;;;;;;;23.10;56.60;;;;;;5077541;28;20582;-77
2023/06/26 02:47:03;;;;;;;;;;;23.30;57.10;;;;;;5075336;28;20390;-76
2023/06/26 02:49:29;;;;;;;;;;;23.20;57.40;;;;;;5092268;28;20337;-76
2023/06/26 02:51:54;;;;;;;;;;;23.20;57.70;;;;;;5073233;28;20007;-77
2023/06/26 02:54:20;;;;;;;;;;;23.10;56.60;;;;;;5091194;28;19921;-76
2023/06/26 02:56:45;;;;;;;;;;;23.20;58.70;;;;;;5089193;28;19920;-77
2023/06/26 02:59:11;;;;;;;;;;;23.10;58.70;;;;;;5071612;28;20345;-77
2023/06/26 03:01:36;;;;;;;;;;;23.00;58.70;;;;;;5075841;28;20631;-77
2023/06/26 03:04:02;;;;;;;;;;;23.00;57.90;;;;;;5074965;28;19918;-77
2023/06/26 03:06:29;;;;;;;;;;;23.00;57.20;;;;;;5089965;28;21348;-77
2023/06/26 03:08:54;;;;;;;;;;;23.00;58.10;;;;;;5090585;28;20002;-77
2023/06/26 03:11:20;;;;;;;;;;;23.00;57.60;;;;;;5090858;28;19938;-77
2023/06/26 03:13:45;;;;;;;;;;;22.90;59.20;;;;;;5091860;28;19914;-76
2023/06/26 03:16:11;;;;;;;;;;;22.80;58.90;;;;;;5094554;28;20656;-77
2023/06/26 03:18:36;;;;;;;;;;;22.80;59.90;;;;;;5076650;28;19919;-77
2023/06/26 03:21:02;;;;;;;;;;;22.80;58.00;;;;;;5095783;28;20377;-77
2023/06/26 03:23:27;;;;;;;;;;;22.70;61.20;;;;;;5077590;28;19920;-77
2023/06/26 03:25:53;;;;;;;;;;;22.60;59.10;;;;;;5094806;28;20399;-81
2023/06/26 03:28:19;;;;;;;;;;;22.60;58.90;;;;;;5082770;28;20383;-81
2023/06/26 03:30:44;;;;;;;;;;;22.60;59.20;;;;;;5097402;28;20417;-76
2023/06/26 03:33:10;;;;;;;;;;;22.60;59.20;;;;;;5077487;28;19912;-77
2023/06/26 03:35:35;;;;;;;;;;;22.60;59.80;;;;;;5077002;28;19912;-77
2023/06/26 03:38:01;;;;;;;;;;;22.50;59.60;;;;;;5096760;28;19916;-77
2023/06/26 03:40:26;;;;;;;;;;;22.60;58.20;;;;;;5077183;28;20434;-77
2023/06/26 03:42:52;;;;;;;;;;;22.60;58.70;;;;;;5078139;28;19908;-77
2023/06/26 03:45:19;;;;;;;;;;;22.60;58.60;;;;;;5095255;28;20010;-77
2023/06/26 03:47:46;;;;;;;;;;;22.50;58.70;;;;;;5075676;28;19919;-77
2023/06/26 03:50:12;;;;;;;;;;;22.50;59.90;;;;;;5095429;28;19958;-77
2023/06/26 03:52:37;;;;;;;;;;;22.50;58.90;;;;;;5078306;28;19912;-77
2023/06/26 03:55:03;;;;;;;;;;;22.60;58.60;;;;;;5076763;28;20013;-77
2023/06/26 03:57:28;;;;;;;;;;;22.50;58.40;;;;;;5093108;28;19912;-78
2023/06/26 03:59:54;;;;;;;;;;;22.50;58.40;;;;;;5076164;28;19908;-77
2023/06/26 04:02:19;;;;;;;;;;;22.60;58.00;;;;;;5056649;22;19925;-83
2023/06/26 04:04:45;;;;;;;;;;;22.70;58.20;;;;;;5028576;28;19921;-84
2023/06/26 04:07:10;;;;;;;;;;;22.60;58.70;;;;;;5047764;28;19920;-84
2023/06/26 04:09:36;;;;;;;;;;;22.60;58.10;;;;;;5037286;28;19924;-84
2023/06/26 04:12:02;;;;;;;;;;;22.90;57.80;;;;;;5053562;28;19956;-85
2023/06/26 04:14:27;;;;;;;;;;;22.80;58.20;;;;;;5053595;28;20261;-84
2023/06/26 04:16:52;;;;;;;;;;;22.80;58.40;;;;;;5053816;28;19976;-85
2023/06/26 04:19:21;;;;;;;;;;;22.80;59.00;;;;;;5036134;28;20311;-83
2023/06/26 04:21:47;;;;;;;;;;;22.80;59.10;;;;;;5041081;28;19973;-85
2023/06/26 04:24:12;;;;;;;;;;;22.80;60.00;;;;;;5041461;28;19967;-85
2023/06/26 04:26:38;;;;;;;;;;;22.70;60.10;;;;;;5057826;28;19959;-84
2023/06/26 04:29:03;;;;;;;;;;;22.70;60.90;;;;;;5039529;28;19948;-84
2023/06/26 04:31:29;;;;;;;;;;;22.70;61.10;;;;;;5044850;28;19913;-85
2023/06/26 04:33:54;;;;;;;;;;;22.70;61.60;;;;;;5045583;28;19992;-83
2023/06/26 04:36:20;;;;;;;;;;;22.70;62.20;;;;;;5040533;28;19912;-84
2023/06/26 04:38:47;;;;;;;;;;;22.70;62.00;;;;;;5035556;28;19920;-84
2023/06/26 04:41:13;;;;;;;;;;;22.60;62.70;;;;;;5036425;28;20015;-83
2023/06/26 04:43:39;;;;;;;;;;;22.60;62.70;;;;;;5036820;28;20391;-84
2023/06/26 04:46:05;;;;;;;;;;;22.50;63.30;;;;;;5054360;28;19929;-84
2023/06/26 04:48:31;;;;;;;;;;;22.50;64.20;;;;;;5035004;28;19920;-85
2023/06/26 04:50:58;;;;;;;;;;;22.50;63.80;;;;;;5053965;28;20513;-83
2023/06/26 04:53:24;;;;;;;;;;;22.50;64.10;;;;;;5039241;28;19963;-85
2023/06/26 04:55:50;;;;;;;;;;;22.40;64.60;;;;;;5055504;28;19909;-83
2023/06/26 04:58:16;;;;;;;;;;;22.50;64.30;;;;;;5054945;28;19921;-84
2023/06/26 05:00:42;;;;;;;;;;;22.60;64.30;;;;;;5038480;28;19928;-84
2023/06/26 05:03:13;;;;;;;;;;;22.60;64.10;;;;;;5038259;28;20059;-90
2023/06/26 05:05:39;;;;;;;;;;;22.60;64.30;;;;;;5036266;28;19960;-84
2023/06/26 05:08:14;;;;;;;;;;;22.50;64.00;;;;;;5043522;28;19913;-87
2023/06/26 05:10:40;;;;;;;;;;;22.50;64.70;;;;;;5034550;28;20050;-87
2023/06/26 05:13:05;;;;;;;;;;;22.60;64.30;;;;;;5035068;28;20404;-87
2023/06/26 05:15:31;;;;;;;;;;;22.60;64.20;;;;;;5024765;28;19917;-84
2023/06/26 05:17:56;;;;;;;;;;;22.60;64.50;;;;;;5054974;28;19912;-85
2023/06/26 05:20:22;;;;;;;;;;;22.60;64.70;;;;;;5057150;28;20395;-86
2023/06/26 05:22:47;;;;;;;;;;;22.50;64.80;;;;;;5023028;28;19924;-85
2023/06/26 05:25:14;;;;;;;;;;;22.50;65.20;;;;;;5035146;28;19913;-85
2023/06/26 05:27:40;;;;;;;;;;;22.50;65.20;;;;;;5021587;28;19913;-85
2023/06/26 05:30:05;;;;;;;;;;;22.60;64.90;;;;;;5036239;28;20000;-85
2023/06/26 05:32:32;;;;;;;;;;;22.80;64.70;;;;;;5036115;28;19909;-86
2023/06/26 05:35:00;;;;;;;;;;;22.70;64.50;;;;;;5047657;28;19916;-85
2023/06/26 05:37:26;;;;;;;;;;;22.80;64.50;;;;;;5033438;28;19924;-85
2023/06/26 05:39:51;;;;;;;;;;;22.80;64.40;;;;;;5034940;28;19908;-83
2023/06/26 05:42:17;;;;;;;;;;;22.70;64.20;;;;;;5034078;28;19917;-85
2023/06/26 05:44:43;;;;;;;;;;;22.60;64.60;;;;;;5035224;28;19950;-86
2023/06/26 05:47:08;;;;;;;;;;;22.60;64.80;;;;;;5035567;28;19963;-85
2023/06/26 05:49:34;;;;;;;;;;;22.50;65.00;;;;;;5036141;28;19913;-84
2023/06/26 05:51:59;;;;;;;;;;;22.50;65.40;;;;;;5034710;28;20319;-86
2023/06/26 05:54:25;;;;;;;;;;;22.40;65.70;;;;;;5052484;28;19912;-85
2023/06/26 05:56:59;;;;;;;;;;;22.60;65.70;;;;;;5034149;28;19913;-85
2023/06/26 05:59:24;;;;;;;;;;;22.60;65.70;;;;;;5032707;28;19917;-85
2023/06/26 06:01:50;;;;;;;;;;;22.70;65.70;;;;;;5032772;28;20420;-86
2023/06/26 06:04:15;;;;;;;;;;;22.80;65.80;;;;;;5033747;28;20020;-84
2023/06/26 06:06:41;;;;;;;;;;;22.90;65.10;;;;;;5053372;28;19962;-85
2023/06/26 06:09:06;;;;;;;;;;;23.00;65.10;;;;;;5050924;28;19913;-85
2023/06/26 06:11:32;;;;;;;;;;;23.10;64.80;;;;;;5034426;28;19913;-88
2023/06/26 06:14:00;;;;;;;;;;;23.10;64.80;;;;;;5034424;28;19912;-89
2023/06/26 06:16:28;;;;;;;;;;;23.20;65.20;;;;;;5033413;28;20514;-88
2023/06/26 06:18:54;;;;;;;;;;;23.10;65.80;;;;;;5050951;28;19958;-89
2023/06/26 06:21:23;;;;;;;;;;;22.90;65.90;;;;;;5024312;28;20004;-90
2023/06/26 06:23:48;;;;;;;;;;;22.80;66.40;;;;;;5023861;28;19931;-86
2023/06/26 06:26:14;;;;;;;;;;;22.60;67.40;;;;;;5051060;28;19912;-87
2023/06/26 06:28:40;;;;;;;;;;;22.50;67.50;;;;;;5032165;28;19913;-88
2023/06/26 06:31:06;;;;;;;;;;;22.50;67.60;;;;;;5033582;28;19913;-87
2023/06/26 06:33:31;;;;;;;;;;;22.50;67.80;;;;;;5051332;28;19913;-89
2023/06/26 06:35:57;;;;;;;;;;;22.50;66.90;;;;;;5033935;28;19966;-87
2023/06/26 06:38:22;;;;;;;;;;;22.50;66.50;;;;;;5051142;28;19975;-86
2023/06/26 06:40:48;;;;;;;;;;;22.40;67.00;;;;;;5032010;28;19942;-88
2023/06/26 06:43:13;;;;;;;;;;;22.50;66.30;;;;;;5032130;28;19916;-87
2023/06/26 06:45:39;;;;;;;;;;;22.60;66.10;;;;;;5051661;28;20012;-89
2023/06/26 06:48:05;;;;;;;;;;;22.80;65.70;;;;;;5049917;28;19913;-87
2023/06/26 06:50:34;;;;;;;;;;;23.00;65.40;;;;;;5051616;28;19913;-90
2023/06/26 06:52:59;;;;;;;;;;;23.00;65.40;;;;;;5053408;28;20003;-88
2023/06/26 06:55:25;;;;;;;;;;;23.10;64.80;;;;;;5055127;28;19948;-88
2023/06/26 06:57:51;;;;;;;;;;;23.20;64.90;;;;;;5038083;28;20297;-88
2023/06/26 07:00:22;;;;;;;;;;;23.30;64.30;;;;;;5037751;28;19908;-90
2023/06/26 07:02:47;;;;;;;;;;;23.40;64.90;;;;;;5051698;28;19921;-89
2023/06/26 07:05:13;;;;;;;;;;;23.40;64.70;;;;;;5033827;28;19917;-88
2023/06/26 07:07:39;;;;;;;;;;;23.30;64.70;;;;;;5037196;28;20023;-89
2023/06/26 07:10:11;;;;;;;;;;;23.00;65.10;;;;;;5048962;28;19935;-88
2023/06/26 07:12:36;;;;;;;;;;;22.90;65.50;;;;;;5036128;28;19912;-88
2023/06/26 07:15:04;;;;;;;;;;;22.60;67.30;;;;;;5036099;28;19919;-85
2023/06/26 07:17:30;;;;;;;;;;;22.50;67.10;;;;;;5053260;28;19916;-86
2023/06/26 07:19:55;;;;;;;;;;;22.60;67.40;;;;;;5036041;28;19928;-88
2023/06/26 07:22:21;;;;;;;;;;;22.60;67.70;;;;;;5060466;22;19901;-92
2023/06/26 07:24:47;;;;;;;;;;;22.60;67.40;;;;;;5097027;28;19943;-92
2023/06/26 07:27:14;;;;;;;;;;;22.70;67.50;;;;;;5091876;28;19908;-91
2023/06/26 07:29:39;;;;;;;;;;;22.80;66.90;;;;;;5088165;28;19912;-91
2023/06/26 07:32:05;;;;;;;;;;;22.80;67.10;;;;;;5072381;28;20366;-91
2023/06/26 07:34:30;;;;;;;;;;;22.90;66.60;;;;;;5067171;28;19920;-91
2023/06/26 07:36:56;;;;;;;;;;;22.80;67.20;;;;;;5079879;28;19912;-91
2023/06/26 07:39:21;;;;;;;;;;;22.90;66.20;;;;;;5077882;28;20291;-92
2023/06/26 07:41:47;;;;;;;;;;;22.90;66.70;;;;;;5077703;28;20006;-90
2023/06/26 07:44:12;;;;;;;;;;;22.80;67.20;;;;;;5094897;28;20408;-93
2023/06/26 07:46:39;;;;;;;;;;;22.80;67.60;;;;;;5076690;28;20010;-89
2023/06/26 07:49:04;;;;;;;;;;;22.80;66.80;;;;;;5089531;28;19963;-91
2023/06/26 07:51:29;;;;;;;;;;;22.80;67.20;;;;;;5084588;28;19954;-92
2023/06/26 07:53:55;;;;;;;;;;;22.80;66.90;;;;;;5090365;28;19935;-89
2023/06/26 07:56:20;;;;;;;;;;;22.90;66.50;;;;;;5083777;28;19999;-89
2023/06/26 07:58:46;;;;;;;;;;;22.90;66.90;;;;;;5075538;28;20376;-90
2023/06/26 08:01:11;;;;;;;;;;;22.90;67.20;;;;;;5058381;28;19912;-90
2023/06/26 08:03:40;;;;;;;;;;;22.90;67.30;;;;;;5076570;28;19995;-91
2023/06/26 08:06:05;;;;;;;;;;;23.00;67.70;;;;;;5075448;28;19908;-90
2023/06/26 08:08:31;;;;;;;;;;;23.10;66.60;;;;;;5063841;28;19924;-91
2023/06/26 08:10:57;;;;;;;;;;;23.10;67.00;;;;;;5055801;28;19917;-91
2023/06/26 08:13:22;;;;;;;;;;;23.30;66.30;;;;;;5079913;28;19916;-89
2023/06/26 08:15:47;;;;;;;;;;;23.50;66.30;;;;;;5086736;28;20264;-91
2023/06/26 08:18:17;;;;;;;;;;;23.50;65.80;;;;;;5094739;28;20001;-89
2023/06/26 08:20:43;;;;;;;;;;;23.70;65.30;;;;;;5071771;28;19912;-90
2023/06/26 08:23:08;;;;;;;;;;;23.80;65.50;;;;;;5069327;28;20114;-91
2023/06/26 08:25:34;;;;;;;;;;;23.90;64.60;;;;;;5063766;28;19916;-90
2023/06/26 08:27:59;;;;;;;;;;;24.00;64.60;;;;;;5072721;28;19923;-90
2023/06/26 08:30:27;;;;;;;;;;;23.80;64.70;;;;;;5068354;28;19931;-90
2023/06/26 08:32:54;;;;;;;;;;;23.80;64.60;;;;;;5083516;28;19926;-89
2023/06/26 08:35:20;;;;;;;;;;;23.80;64.60;;;;;;5062452;28;19927;-92
2023/06/26 08:37:45;;;;;;;;;;;23.70;64.20;;;;;;5061718;28;19912;-91
2023/06/26 08:40:15;;;;;;;;;;;23.80;65.00;;;;;;5065707;28;19919;-89
2023/06/26 08:42:41;;;;;;;;;;;23.80;64.70;;;;;;5062867;28;20003;-90
2023/06/26 08:45:06;;;;;;;;;;;23.80;64.90;;;;;;5086262;28;20012;-91
2023/06/26 08:47:33;;;;;;;;;;;23.90;65.60;;;;;;5061254;28;19912;-91
2023/06/26 08:50:10;;;;;;;;;;;23.90;64.10;;;;;;5059603;28;19920;-89
2023/06/26 08:52:37;;;;;;;;;;;23.90;64.60;;;;;;5070364;28;19916;-90
2023/06/26 08:55:06;;;;;;;;;;;23.90;64.80;;;;;;5070185;28;19974;-91
2023/06/26 08:57:32;;;;;;;;;;;24.00;64.20;;;;;;5068706;28;19912;-90
2023/06/26 08:59:57;;;;;;;;;;;24.10;64.40;;;;;;5075194;28;20388;-91
2023/06/26 09:02:23;;;;;;;;;;;24.20;64.50;;;;;;5059114;28;20379;-89
2023/06/26 09:04:50;;;;;;;;;;;24.40;63.70;;;;;;5058785;28;20277;-88
2023/06/26 09:07:16;;;;;;;;;;;24.50;62.10;;;;;;5084318;28;19981;-89
2023/06/26 09:09:41;;;;;;;;;;;24.50;61.70;;;;;;5074889;28;19909;-90
2023/06/26 09:12:08;;;;;;;;;;;24.30;62.10;;;;;;5081068;28;19957;-90
2023/06/26 09:14:34;;;;;;;;;;;24.00;63.40;;;;;;5079148;28;19908;-91
2023/06/26 09:16:59;;;;;;;;;;;23.90;64.00;;;;;;5074671;28;19950;-90
2023/06/26 09:19:25;;;;;;;;;;;23.70;64.80;;;;;;5069636;28;19908;-90
2023/06/26 09:21:51;;;;;;;;;;;23.60;65.60;;;;;;5092804;28;19958;-91
2023/06/26 09:24:16;;;;;;;;;;;23.50;66.20;;;;;;5073064;28;19967;-91
2023/06/26 09:26:42;;;;;;;;;;;23.70;65.20;;;;;;5072944;28;19965;-91
2023/06/26 09:29:09;;;;;;;;;;;23.80;64.60;;;;;;5059135;28;19919;-91
2023/06/26 09:31:36;;;;;;;;;;;24.00;63.90;;;;;;5055015;28;19963;-91
2023/06/26 09:34:05;;;;;;;;;;;23.90;63.20;;;;;;5056600;28;19912;-91
2023/06/26 09:36:36;;;;;;;;;;;23.80;63.10;;;;;;5053449;28;19916;-90
2023/06/26 09:39:08;;;;;;;;;;;23.60;64.00;;;;;;5057828;28;20388;-90
2023/06/26 09:41:40;;;;;;;;;;;23.60;64.10;;;;;;5059451;28;19912;-91
2023/06/26 09:44:06;;;;;;;;;;;23.80;62.60;;;;;;5062650;28;20017;-90
2023/06/26 09:46:31;;;;;;;;;;;24.00;62.80;;;;;;5069436;28;19955;-90
2023/06/26 09:49:07;;;;;;;;;;;24.00;61.80;;;;;;5063222;28;19951;-89
2023/06/26 09:51:33;;;;;;;;;;;24.20;61.60;;;;;;5052056;28;19912;-91
2023/06/26 09:54:02;;;;;;;;;;;24.20;61.00;;;;;;5057929;28;19924;-91
2023/06/26 09:56:29;;;;;;;;;;;24.00;61.10;;;;;;5063906;28;19955;-89
2023/06/26 09:58:59;;;;;;;;;;;23.80;62.80;;;;;;5068652;28;20374;-89
2023/06/26 10:04:24;;;;;;;;;;;23.80;62.10;;;;;;5083781;28;19916;-91
2023/06/26 10:06:52;;;;;;;;;;;24.00;62.30;;;;;;5066099;28;19980;-91
2023/06/26 10:09:27;;;;;;;;;;;24.20;62.40;;;;;;5092628;28;19908;-90
2023/06/26 10:12:14;;;;;;;;;;;24.40;61.00;;;;;;5057932;28;19987;-90
2023/06/26 10:14:41;;;;;;;;;;;24.40;59.60;;;;;;5053258;28;19917;-89
2023/06/26 10:17:09;;;;;;;;;;;24.50;60.90;;;;;;5047608;28;19917;-90
2023/06/26 10:19:37;;;;;;;;;;;24.60;61.00;;;;;;5045682;28;19913;-88
2023/06/26 10:22:03;;;;;;;;;;;24.60;58.30;;;;;;5071773;28;19912;-89
2023/06/26 10:24:33;;;;;;;;;;;24.30;57.90;;;;;;5070421;28;20343;-90
2023/06/26 10:27:04;;;;;;;;;;;24.10;58.20;;;;;;5072278;28;19915;-89
2023/06/26 10:29:30;;;;;;;;;;;24.00;58.50;;;;;;5050829;28;19935;-89
2023/06/26 10:31:58;;;;;;;;;;;24.20;58.20;;;;;;5055428;28;19956;-90
2023/06/26 10:34:29;;;;;;;;;;;24.50;57.80;;;;;;5041779;28;19913;-89
2023/06/26 10:36:58;;;;;;;;;;;24.70;56.90;;;;;;5050376;28;20366;-90
2023/06/26 10:39:26;;;;;;;;;;;24.90;55.20;;;;;;5056870;28;19919;-88
2023/06/26 10:41:54;;;;;;;;;;;25.00;55.80;;;;;;5081856;28;19932;-88
2023/06/26 10:44:22;;;;;;;;;;;25.00;55.40;;;;;;5040374;28;19916;-88
2023/06/26 10:46:58;;;;;;;;;;;25.10;55.50;;;;;;5039877;28;19920;-89
2023/06/26 10:49:28;;;;;;;;;;;25.20;54.30;;;;;;5055978;28;19913;-88
2023/06/26 10:51:56;;;;;;;;;;;25.10;53.40;;;;;;5039099;28;19916;-88
2023/06/26 10:54:22;;;;;;;;;;;25.10;52.50;;;;;;5063930;28;19999;-90
2023/06/26 10:56:48;;;;;;;;;;;25.00;53.60;;;;;;5039251;28;20394;-87
2023/06/26 10:59:18;;;;;;;;;;;25.00;52.90;;;;;;5065088;28;19981;-88
2023/06/26 11:01:46;;;;;;;;;;;24.80;52.80;;;;;;5046858;28;19921;-89
2023/06/26 11:04:16;;;;;;;;;;;24.70;53.70;;;;;;5039069;28;19968;-89
2023/06/26 11:06:47;;;;;;;;;;;24.50;53.70;;;;;;5051608;28;19920;-90
2023/06/26 11:09:18;;;;;;;;;;;24.50;54.20;;;;;;5052134;28;19913;-88
2023/06/26 11:11:55;;;;;;;;;;;24.50;54.20;;;;;;5050056;28;20384;-89
2023/06/26 11:14:22;;;;;;;;;;;24.50;52.40;;;;;;5039349;28;19999;-87
2023/06/26 11:16:48;;;;;;;;;;;24.70;51.90;;;;;;5053733;28;19916;-89
2023/06/26 11:19:14;;;;;;;;;;;24.90;52.60;;;;;;5044144;28;19935;-86
2023/06/26 11:21:43;;;;;;;;;;;25.00;51.20;;;;;;5065595;28;20445;-88
2023/06/26 11:24:09;;;;;;;;;;;25.20;52.30;;;;;;5057177;28;19951;-89
2023/06/26 11:26:38;;;;;;;;;;;25.40;50.10;;;;;;5055995;28;20285;-91
2023/06/26 11:29:04;;;;;;;;;;;25.40;50.70;;;;;;5049297;28;19917;-87
2023/06/26 11:31:31;;;;;;;;;;;25.50;52.20;;;;;;5064444;28;19908;-89
2023/06/26 11:33:58;;;;;;;;;;;24.90;53.90;;;;;;5070627;28;19908;-86
2023/06/26 11:36:25;;;;;;;;;;;24.40;55.90;;;;;;5061601;28;19912;-89
2023/06/26 11:38:57;;;;;;;;;;;24.30;55.80;;;;;;5044528;28;20004;-86
2023/06/26 11:41:24;;;;;;;;;;;24.10;55.00;;;;;;5054497;28;19931;-85
2023/06/26 11:43:50;;;;;;;;;;;24.10;54.80;;;;;;5036877;28;19916;-88
2023/06/26 11:46:19;;;;;;;;;;;24.10;55.20;;;;;;5058110;28;19912;-88
2023/06/26 11:48:45;;;;;;;;;;;24.10;53.90;;;;;;5073121;28;19916;-86
2023/06/26 11:51:12;;;;;;;;;;;24.10;53.60;;;;;;5063802;28;19913;-89
2023/06/26 11:53:44;;;;;;;;;;;23.90;54.70;;;;;;5043871;28;19916;-88
2023/06/26 11:56:14;;;;;;;;;;;24.00;54.70;;;;;;5052344;28;19909;-89
2023/06/26 11:58:55;;;;;;;;;;;23.90;54.40;;;;;;5067691;28;19958;-90
2023/06/26 12:01:22;;;;;;;;;;;24.00;54.00;;;;;;5061639;28;19917;-86
2023/06/26 12:03:48;;;;;;;;;;;24.00;52.90;;;;;;5050254;28;20023;-87
2023/06/26 12:06:14;;;;;;;;;;;24.20;53.30;;;;;;5047595;28;20397;-85
2023/06/26 12:08:40;;;;;;;;;;;24.40;51.60;;;;;;5068573;28;19923;-87
2023/06/26 12:11:06;;;;;;;;;;;24.50;51.00;;;;;;5073381;28;20329;-89
2023/06/26 12:13:32;;;;;;;;;;;24.60;50.50;;;;;;5064223;28;19919;-82
2023/06/26 12:15:57;;;;;;;;;;;24.60;50.30;;;;;;5061520;28;19913;-86
2023/06/26 12:18:25;;;;;;;;;;;24.60;50.30;;;;;;5059722;28;20365;-85
2023/06/26 12:20:51;;;;;;;;;;;24.60;49.30;;;;;;5052136;28;19912;-87
2023/06/26 12:23:16;;;;;;;;;;;24.70;48.80;;;;;;5036520;28;19916;-86
2023/06/26 12:25:42;;;;;;;;;;;24.80;48.50;;;;;;5046956;28;19922;-91
2023/06/26 12:28:20;;;;;;;;;;;24.80;47.40;;;;;;5046566;28;20119;-89
2023/06/26 12:30:47;;;;;;;;;;;24.80;47.20;;;;;;5053119;28;19970;-89
2023/06/26 12:33:21;;;;;;;;;;;25.00;47.50;;;;;;5053570;28;19917;-90
2023/06/26 12:35:49;;;;;;;;;;;24.90;47.00;;;;;;5053059;28;19920;-89
2023/06/26 12:38:17;;;;;;;;;;;24.80;46.50;;;;;;5045522;28;19920;-89
2023/06/26 12:40:46;;;;;;;;;;;25.10;45.50;;;;;;5049834;28;19916;-88
2023/06/26 12:43:22;;;;;;;;;;;25.10;45.50;;;;;;5048975;28;19912;-89
2023/06/26 12:45:47;;;;;;;;;;;25.10;44.70;;;;;;5048441;28;20019;-89
2023/06/26 12:48:13;;;;;;;;;;;24.70;45.50;;;;;;5047114;28;20011;-89
2023/06/26 12:50:45;;;;;;;;;;;24.60;45.80;;;;;;5081505;28;19912;-85
2023/06/26 12:53:11;;;;;;;;;;;24.70;45.90;;;;;;5051757;28;20007;-90
2023/06/26 12:55:37;;;;;;;;;;;24.60;44.50;;;;;;5083181;28;20409;-90
2023/06/26 12:58:02;;;;;;;;;;;24.50;44.10;;;;;;5069713;28;19916;-85
2023/06/26 13:00:31;;;;;;;;;;;24.30;44.90;;;;;;5074147;28;20474;-89
2023/06/26 13:02:58;;;;;;;;;;;24.30;44.50;;;;;;5059688;28;20029;-87
2023/06/26 13:05:23;;;;;;;;;;;24.30;43.70;;;;;;5075944;28;19927;-87
2023/06/26 13:07:49;;;;;;;;;;;24.30;43.80;;;;;;5048546;28;19909;-88
2023/06/26 13:10:14;;;;;;;;;;;24.40;43.10;;;;;;5054482;28;19909;-89
2023/06/26 13:12:40;;;;;;;;;;;24.50;43.70;;;;;;5055933;28;19919;-87
2023/06/26 13:15:06;;;;;;;;;;;24.60;42.20;;;;;;5055026;28;19938;-89
2023/06/26 13:17:31;;;;;;;;;;;24.60;42.20;;;;;;5054093;28;19913;-89
2023/06/26 13:19:56;;;;;;;;;;;24.50;42.80;;;;;;5054684;28;19912;-89
2023/06/26 13:22:22;;;;;;;;;;;24.40;43.00;;;;;;5055118;28;19912;-89
2023/06/26 13:24:48;;;;;;;;;;;24.40;43.70;;;;;;5073303;28;20291;-88
2023/06/26 13:27:14;;;;;;;;;;;24.30;43.80;;;;;;5054494;28;19909;-88
2023/06/26 13:29:43;;;;;;;;;;;24.30;43.90;;;;;;5055289;28;20288;-90
2023/06/26 13:32:09;;;;;;;;;;;24.50;44.20;;;;;;5046473;28;19913;-90
2023/06/26 13:34:34;;;;;;;;;;;24.60;44.60;;;;;;5054064;28;19919;-86
2023/06/26 13:37:00;;;;;;;;;;;24.60;44.70;;;;;;5075450;28;20400;-88
2023/06/26 13:39:25;;;;;;;;;;;24.70;45.00;;;;;;5079236;28;19928;-85
2023/06/26 13:41:51;;;;;;;;;;;24.70;43.00;;;;;;5063354;28;19919;-85
2023/06/26 13:44:16;;;;;;;;;;;24.50;43.50;;;;;;5062279;28;19923;-85
2023/06/26 13:46:42;;;;;;;;;;;24.40;43.40;;;;;;5046038;28;20430;-87
2023/06/26 13:49:07;;;;;;;;;;;24.40;44.70;;;;;;5061968;28;19913;-87
2023/06/26 13:51:33;;;;;;;;;;;24.40;42.40;;;;;;5044773;28;19913;-86
2023/06/26 13:54:00;;;;;;;;;;;24.50;42.40;;;;;;5046776;28;20000;-85
2023/06/26 13:56:26;;;;;;;;;;;24.70;41.70;;;;;;5041486;28;19920;-82
2023/06/26 13:58:51;;;;;;;;;;;24.70;42.10;;;;;;5045138;28;20389;-84
2023/06/26 14:01:17;;;;;;;;;;;24.60;41.40;;;;;;5059126;28;20111;-84
2023/06/26 14:03:42;;;;;;;;;;;24.60;40.90;;;;;;5064390;28;19917;-84
2023/06/26 14:06:07;;;;;;;;;;;24.60;39.60;;;;;;5040808;28;20311;-83
2023/06/26 14:08:33;;;;;;;;;;;24.40;40.00;;;;;;5041053;28;20027;-84
2023/06/26 14:10:59;;;;;;;;;;;24.40;38.80;;;;;;5061957;28;20003;-85
2023/06/26 14:13:25;;;;;;;;;;;24.30;38.10;;;;;;5060437;28;19996;-84
2023/06/26 14:15:52;;;;;;;;;;;24.30;36.60;;;;;;5037766;28;20001;-84